sensor_id;sensor_type;location;lat;lon;timestamp;pressure;altitude;pressure_sealevel;temperature;humidity
8069;BME280;4077;43.702;24.896;2023-06-26T00:02:53;99114.56;;;19.74;100.00
8069;BME280;4077;43.702;24.896;2023-06-26T00:05:28;99118.50;;;19.87;100.00
8069;BME280;4077;43.702;24.896;2023-06-26T00:07:55;99116.03;;;19.83;100.00
8069;BME280;4077;43.702;24.896;2023-06-26T00:10:20;99108.41;;;19.77;100.00
8069;BME280;4077;43.702;24.896;2023-06-26T00:13:06;99117.66;;;19.87;100.00
8069;BME280;4077;43.702;24.896;2023-06-26T00:15:31;99111.09;;;19.74;100.00
8069;BME280;4077;43.702;24.896;2023-06-26T00:17:58;99103.28;;;19.72;100.00
8069;BME280;4077;43.702;24.896;2023-06-26T00:23:35;99102.44;;;19.72;100.00
8069;BME280;4077;43.702;24.896;2023-06-26T00:26:03;99098.06;;;19.72;100.00
8069;BME280;4077;43.702;24.896;2023-06-26T00:28:38;99101.28;;;19.80;100.00
8069;BME280;4077;43.702;24.896;2023-06-26T00:31:04;99100.63;;;19.74;100.00
8069;BME280;4077;43.702;24.896;2023-06-26T00:33:29;99077.50;;;19.60;100.00
8069;BME280;4077;43.702;24.896;2023-06-26T00:35:55;99108.53;;;19.72;100.00
8069;BME280;4077;43.702;24.896;2023-06-26T00:38:20;99097.28;;;19.68;100.00
8069;BME280;4077;43.702;24.896;2023-06-26T00:40:46;99098.91;;;19.73;100.00
8069;BME280;4077;43.702;24.896;2023-06-26T00:43:11;99098.25;;;19.66;100.00
8069;BME280;4077;43.702;24.896;2023-06-26T00:45:37;99103.50;;;19.66;100.00
8069;BME280;4077;43.702;24.896;2023-06-26T00:48:02;99097.41;;;19.65;100.00
8069;BME280;4077;43.702;24.896;2023-06-26T00:50:28;99086.34;;;19.56;100.00
8069;BME280;4077;43.702;24.896;2023-06-26T00:52:54;99099.91;;;19.68;100.00
8069;BME280;4077;43.702;24.896;2023-06-26T00:55:22;99109.41;;;19.73;100.00
8069;BME280;4077;43.702;24.896;2023-06-26T00:57:47;99105.00;;;19.73;100.00
8069;BME280;4077;43.702;24.896;2023-06-26T01:00:13;99086.16;;;19.62;100.00
8069;BME280;4077;43.702;24.896;2023-06-26T01:02:39;99106.88;;;19.70;100.00
8069;BME280;4077;43.702;24.896;2023-06-26T01:05:06;99099.81;;;19.72;100.00
8069;BME280;4077;43.702;24.896;2023-06-26T01:07:35;99096.31;;;19.73;100.00
8069;BME280;4077;43.702;24.896;2023-06-26T01:10:04;99094.59;;;19.72;100.00
8069;BME280;4077;43.702;24.896;2023-06-26T01:12:31;99086.72;;;19.72;100.00
8069;BME280;4077;43.702;24.896;2023-06-26T01:14:57;99079.59;;;19.77;100.00
8069;BME280;4077;43.702;24.896;2023-06-26T01:17:23;99096.34;;;19.71;100.00
8069;BME280;4077;43.702;24.896;2023-06-26T01:19:49;99089.25;;;19.75;100.00
8069;BME280;4077;43.702;24.896;2023-06-26T01:25:07;99100.50;;;19.78;100.00
8069;BME280;4077;43.702;24.896;2023-06-26T01:27:38;99097.03;;;19.76;100.00
8069;BME280;4077;43.702;24.896;2023-06-26T01:30:04;99098.91;;;19.73;100.00
8069;BME280;4077;43.702;24.896;2023-06-26T01:32:32;99089.34;;;19.72;100.00
8069;BME280;4077;43.702;24.896;2023-06-26T01:35:00;99078.28;;;19.63;100.00
8069;BME280;4077;43.702;24.896;2023-06-26T01:37:26;99091.78;;;19.78;100.00
8069;BME280;4077;43.702;24.896;2023-06-26T01:39:52;99092.69;;;19.77;100.00
8069;BME280;4077;43.702;24.896;2023-06-26T01:45:39;99084.41;;;19.89;100.00
8069;BME280;4077;43.702;24.896;2023-06-26T01:48:06;99087.75;;;19.94;100.00
8069;BME280;4077;43.702;24.896;2023-06-26T01:50:36;99090.47;;;19.91;100.00
8069;BME280;4077;43.702;24.896;2023-06-26T01:53:07;99081.09;;;19.84;100.00
8069;BME280;4077;43.702;24.896;2023-06-26T01:55:55;99085.69;;;19.77;100.00
8069;BME280;4077;43.702;24.896;2023-06-26T01:58:25;99068.34;;;19.73;100.00
8069;BME280;4077;43.702;24.896;2023-06-26T02:00:51;99082.22;;;19.77;100.00
8069;BME280;4077;43.702;24.896;2023-06-26T02:03:17;99090.06;;;19.77;100.00
8069;BME280;4077;43.702;24.896;2023-06-26T02:05:42;99081.78;;;19.89;100.00
8069;BME280;4077;43.702;24.896;2023-06-26T02:08:09;99084.13;;;19.98;100.00
8069;BME280;4077;43.702;24.896;2023-06-26T02:10:35;99090.09;;;20.02;100.00
8069;BME280;4077;43.702;24.896;2023-06-26T02:13:01;99091.72;;;20.06;100.00
8069;BME280;4077;43.702;24.896;2023-06-26T02:15:26;99089.44;;;19.95;100.00
8069;BME280;4077;43.702;24.896;2023-06-26T02:17:52;99062.59;;;19.88;100.00
8069;BME280;4077;43.702;24.896;2023-06-26T02:20:17;99090.09;;;20.02;100.00
8069;BME280;4077;43.702;24.896;2023-06-26T02:22:42;99094.59;;;19.98;100.00
8069;BME280;4077;43.702;24.896;2023-06-26T02:25:09;99078.03;;;19.98;100.00
8069;BME280;4077;43.702;24.896;2023-06-26T02:27:38;99083.28;;;19.96;100.00
8069;BME280;4077;43.702;24.896;2023-06-26T02:30:04;99083.41;;;19.93;100.00
8069;BME280;4077;43.702;24.896;2023-06-26T02:32:30;99073.13;;;19.87;100.00
8069;BME280;4077;43.702;24.896;2023-06-26T02:34:55;99078.22;;;19.91;100.00
8069;BME280;4077;43.702;24.896;2023-06-26T02:37:20;99078.97;;;19.95;100.00
8069;BME280;4077;43.702;24.896;2023-06-26T02:39:46;99071.47;;;19.84;100.00
8069;BME280;4077;43.702;24.896;2023-06-26T02:42:11;99077.25;;;19.94;100.00
8069;BME280;4077;43.702;24.896;2023-06-26T02:44:37;99076.53;;;19.89;100.00
8069;BME280;4077;43.702;24.896;2023-06-26T02:47:02;99078.75;;;20.01;100.00
8069;BME280;4077;43.702;24.896;2023-06-26T02:49:28;99078.47;;;19.84;100.00
8069;BME280;4077;43.702;24.896;2023-06-26T02:51:53;99089.16;;;19.78;100.00
8069;BME280;4077;43.702;24.896;2023-06-26T02:54:19;99080.13;;;19.86;100.00
8069;BME280;4077;43.702;24.896;2023-06-26T02:56:44;99079.16;;;19.89;100.00
8069;BME280;4077;43.702;24.896;2023-06-26T02:59:10;99073.06;;;19.88;100.00
8069;BME280;4077;43.702;24.896;2023-06-26T03:01:35;99077.47;;;19.88;100.00
8069;BME280;4077;43.702;24.896;2023-06-26T03:04:01;99075.88;;;19.84;100.00
8069;BME280;4077;43.702;24.896;2023-06-26T03:06:27;99087.00;;;19.90;100.00
8069;BME280;4077;43.702;24.896;2023-06-26T03:08:53;99080.59;;;19.99;100.00
8069;BME280;4077;43.702;24.896;2023-06-26T03:11:19;99079.88;;;19.94;100.00
8069;BME280;4077;43.702;24.896;2023-06-26T03:13:44;99076.53;;;19.90;100.00
8069;BME280;4077;43.702;24.896;2023-06-26T03:16:10;99075.56;;;19.93;100.00
8069;BME280;4077;43.702;24.896;2023-06-26T03:18:35;99078.09;;;19.94;100.00
8069;BME280;4077;43.702;24.896;2023-06-26T03:21:01;99068.69;;;19.89;100.00
8069;BME280;4077;43.702;24.896;2023-06-26T03:23:26;99074.69;;;19.92;100.00
8069;BME280;4077;43.702;24.896;2023-06-26T03:25:51;99073.91;;;19.90;100.00
8069;BME280;4077;43.702;24.896;2023-06-26T03:28:17;99064.41;;;19.86;100.00
8069;BME280;4077;43.702;24.896;2023-06-26T03:30:42;99045.88;;;19.66;100.00
8069;BME280;4077;43.702;24.896;2023-06-26T03:33:08;99055.00;;;19.81;100.00
8069;BME280;4077;43.702;24.896;2023-06-26T03:35:33;99060.09;;;19.85;100.00
8069;BME280;4077;43.702;24.896;2023-06-26T03:37:59;99062.06;;;19.79;100.00
8069;BME280;4077;43.702;24.896;2023-06-26T03:40:26;99049.22;;;19.71;100.00
8069;BME280;4077;43.702;24.896;2023-06-26T03:42:51;99060.16;;;19.84;100.00
8069;BME280;4077;43.702;24.896;2023-06-26T03:45:17;99064.31;;;19.89;100.00
8069;BME280;4077;43.702;24.896;2023-06-26T03:47:42;99064.94;;;19.98;100.00
8069;BME280;4077;43.702;24.896;2023-06-26T03:50:08;99066.47;;;20.03;100.00
8069;BME280;4077;43.702;24.896;2023-06-26T03:52:34;99062.97;;;20.04;100.00
8069;BME280;4077;43.702;24.896;2023-06-26T03:54:59;99068.06;;;20.07;100.00
8069;BME280;4077;43.702;24.896;2023-06-26T03:57:25;99069.69;;;20.11;100.00
8069;BME280;4077;43.702;24.896;2023-06-26T03:59:51;99077.38;;;20.16;100.00
8069;BME280;4077;43.702;24.896;2023-06-26T04:02:17;99063.53;;;20.12;100.00
8069;BME280;4077;43.702;24.896;2023-06-26T04:04:43;99079.75;;;20.23;100.00
8069;BME280;4077;43.702;24.896;2023-06-26T04:07:09;99085.75;;;20.27;100.00
8069;BME280;4077;43.702;24.896;2023-06-26T04:09:34;99089.00;;;20.34;100.00
8069;BME280;4077;43.702;24.896;2023-06-26T04:12:00;99088.44;;;20.26;100.00
8069;BME280;4077;43.702;24.896;2023-06-26T04:14:25;99088.44;;;20.26;100.00
8069;BME280;4077;43.702;24.896;2023-06-26T04:16:51;99091.97;;;20.25;100.00
8069;BME280;4077;43.702;24.896;2023-06-26T04:19:16;99084.66;;;20.08;100.00
8069;BME280;4077;43.702;24.896;2023-06-26T04:21:42;99077.91;;;20.01;100.00
8069;BME280;4077;43.702;24.896;2023-06-26T04:24:07;99077.06;;;20.00;100.00
8069;BME280;4077;43.702;24.896;2023-06-26T04:26:33;99097.63;;;20.12;100.00
8069;BME280;4077;43.702;24.896;2023-06-26T04:28:58;99097.50;;;20.15;100.00
8069;BME280;4077;43.702;24.896;2023-06-26T04:31:24;99090.53;;;20.14;100.00
8069;BME280;4077;43.702;24.896;2023-06-26T04:33:50;99097.41;;;20.18;100.00
8069;BME280;4077;43.702;24.896;2023-06-26T04:36:17;99099.19;;;20.18;100.00
8069;BME280;4077;43.702;24.896;2023-06-26T04:38:43;99095.38;;;20.27;100.00
8069;BME280;4077;43.702;24.896;2023-06-26T04:41:09;99096.09;;;20.32;100.00
8069;BME280;4077;43.702;24.896;2023-06-26T04:43:34;99087.13;;;20.37;100.00
8069;BME280;4077;43.702;24.896;2023-06-26T04:46:02;99081.03;;;20.37;100.00
8069;BME280;4077;43.702;24.896;2023-06-26T04:48:27;99091.13;;;20.49;100.00
8069;BME280;4077;43.702;24.896;2023-06-26T04:50:54;99097.16;;;20.51;100.00
8069;BME280;4077;43.702;24.896;2023-06-26T04:53:20;99097.97;;;20.53;100.00
8069;BME280;4077;43.702;24.896;2023-06-26T04:55:46;99110.69;;;20.64;100.00
8069;BME280;4077;43.702;24.896;2023-06-26T04:58:12;99116.50;;;20.73;100.00
8069;BME280;4077;43.702;24.896;2023-06-26T05:00:37;99105.88;;;20.76;100.00
8069;BME280;4077;43.702;24.896;2023-06-26T05:03:03;99118.63;;;20.87;100.00
8069;BME280;4077;43.702;24.896;2023-06-26T05:05:29;99120.13;;;20.93;100.00
8069;BME280;4077;43.702;24.896;2023-06-26T05:07:55;99118.91;;;21.03;100.00
8069;BME280;4077;43.702;24.896;2023-06-26T05:10:21;99117.19;;;21.02;100.00
8069;BME280;4077;43.702;24.896;2023-06-26T05:12:46;99129.75;;;21.17;100.00
8069;BME280;4077;43.702;24.896;2023-06-26T05:15:12;99126.03;;;21.23;100.00
8069;BME280;4077;43.702;24.896;2023-06-26T05:17:37;99133.97;;;21.21;100.00
8069;BME280;4077;43.702;24.896;2023-06-26T05:20:03;99135.69;;;21.22;100.00
8069;BME280;4077;43.702;24.896;2023-06-26T05:22:32;99135.06;;;21.16;100.00
8069;BME280;4077;43.702;24.896;2023-06-26T05:24:58;99141.03;;;21.19;100.00
8069;BME280;4077;43.702;24.896;2023-06-26T05:27:26;99133.97;;;21.21;100.00
8069;BME280;4077;43.702;24.896;2023-06-26T05:29:51;99148.25;;;21.14;100.00
8069;BME280;4077;43.702;24.896;2023-06-26T05:32:17;99142.03;;;20.92;100.00
8069;BME280;4077;43.702;24.896;2023-06-26T05:34:46;99124.28;;;20.75;100.00
8069;BME280;4077;43.702;24.896;2023-06-26T05:37:17;99146.34;;;20.94;100.00
8069;BME280;4077;43.702;24.896;2023-06-26T05:39:45;99147.91;;;20.98;100.00
8069;BME280;4077;43.702;24.896;2023-06-26T05:42:11;99137.44;;;20.98;100.00
8069;BME280;4077;43.702;24.896;2023-06-26T05:44:37;99147.75;;;21.03;100.00
8069;BME280;4077;43.702;24.896;2023-06-26T05:47:02;99145.28;;;21.00;100.00
8069;BME280;4077;43.702;24.896;2023-06-26T05:49:27;99144.16;;;21.06;100.00
8069;BME280;4077;43.702;24.896;2023-06-26T05:51:53;99135.50;;;21.03;100.00
8069;BME280;4077;43.702;24.896;2023-06-26T05:54:19;99144.13;;;21.07;100.00
8069;BME280;4077;43.702;24.896;2023-06-26T05:56:45;99144.44;;;20.98;100.00
8069;BME280;4077;43.702;24.896;2023-06-26T05:59:11;99144.16;;;21.06;100.00
8069;BME280;4077;43.702;24.896;2023-06-26T06:01:39;99140.88;;;21.00;100.00
8069;BME280;4077;43.702;24.896;2023-06-26T06:04:04;99144.78;;;21.12;100.00
8069;BME280;4077;43.702;24.896;2023-06-26T06:06:30;99136.25;;;21.07;100.00
8069;BME280;4077;43.702;24.896;2023-06-26T06:08:55;99137.47;;;21.20;100.00
8069;BME280;4077;43.702;24.896;2023-06-26T06:11:21;99151.00;;;21.35;100.00
8069;BME280;4077;43.702;24.896;2023-06-26T06:13:47;99156.69;;;21.22;100.00
8069;BME280;4077;43.702;24.896;2023-06-26T06:16:13;99166.50;;;21.41;100.00
8069;BME280;4077;43.702;24.896;2023-06-26T06:18:38;99170.19;;;21.37;100.00
8069;BME280;4077;43.702;24.896;2023-06-26T06:21:04;99171.53;;;21.47;100.00
8069;BME280;4077;43.702;24.896;2023-06-26T06:23:30;99170.13;;;21.60;100.00
8069;BME280;4077;43.702;24.896;2023-06-26T06:25:55;99155.81;;;21.69;100.00
8069;BME280;4077;43.702;24.896;2023-06-26T06:28:20;99162.41;;;21.79;100.00
8069;BME280;4077;43.702;24.896;2023-06-26T06:30:46;99170.28;;;22.01;100.00
8069;BME280;4077;43.702;24.896;2023-06-26T06:33:13;99170.34;;;22.21;100.00
8069;BME280;4077;43.702;24.896;2023-06-26T06:35:38;99177.31;;;22.44;100.00
8069;BME280;4077;43.702;24.896;2023-06-26T06:38:04;99184.34;;;22.64;100.00
8069;BME280;4077;43.702;24.896;2023-06-26T06:40:30;99191.38;;;22.84;100.00
8069;BME280;4077;43.702;24.896;2023-06-26T06:42:55;99188.84;;;23.03;100.00
8069;BME280;4077;43.702;24.896;2023-06-26T06:45:20;99191.50;;;23.22;100.00
8069;BME280;4077;43.702;24.896;2023-06-26T06:47:46;99193.50;;;23.35;100.00
8069;BME280;4077;43.702;24.896;2023-06-26T06:50:11;99174.63;;;23.07;100.00
8069;BME280;4077;43.702;24.896;2023-06-26T06:52:38;99190.75;;;22.99;100.00
8069;BME280;4077;43.702;24.896;2023-06-26T06:55:06;99194.78;;;22.87;100.00
8069;BME280;4077;43.702;24.896;2023-06-26T06:57:35;99198.97;;;22.91;100.00
8069;BME280;4077;43.702;24.896;2023-06-26T07:00:07;99203.00;;;23.00;100.00
8069;BME280;4077;43.702;24.896;2023-06-26T07:02:40;99201.06;;;23.04;100.00
8069;BME280;4077;43.702;24.896;2023-06-26T07:05:06;99198.25;;;22.88;100.00
8069;BME280;4077;43.702;24.896;2023-06-26T07:07:33;99204.50;;;22.85;100.00
8069;BME280;4077;43.702;24.896;2023-06-26T07:10:01;99201.97;;;22.62;100.00
8069;BME280;4077;43.702;24.896;2023-06-26T07:12:27;99196.72;;;22.62;100.00
8069;BME280;4077;43.702;24.896;2023-06-26T07:14:52;99201.72;;;22.68;100.00
8069;BME280;4077;43.702;24.896;2023-06-26T07:17:19;99206.72;;;22.74;100.00
8069;BME280;4077;43.702;24.896;2023-06-26T07:19:45;99192.69;;;22.53;100.00
8069;BME280;4077;43.702;24.896;2023-06-26T07:22:11;99195.16;;;22.58;100.00
8069;BME280;4077;43.702;24.896;2023-06-26T07:24:37;99194.41;;;22.54;100.00
8069;BME280;4077;43.702;24.896;2023-06-26T07:27:02;99190.00;;;22.55;100.00
8069;BME280;4077;43.702;24.896;2023-06-26T07:29:28;99191.72;;;22.97;100.00
8069;BME280;4077;43.702;24.896;2023-06-26T07:31:53;99207.19;;;23.43;100.00
8069;BME280;4077;43.702;24.896;2023-06-26T07:34:19;99202.38;;;23.72;100.00
8069;BME280;4077;43.702;24.896;2023-06-26T07:36:44;99213.00;;;23.89;100.00
8069;BME280;4077;43.702;24.896;2023-06-26T07:39:10;99209.34;;;23.92;100.00
8069;BME280;4077;43.702;24.896;2023-06-26T07:41:35;99215.72;;;23.69;100.00
8069;BME280;4077;43.702;24.896;2023-06-26T07:44:01;99211.41;;;23.47;100.00
8069;BME280;4077;43.702;24.896;2023-06-26T07:46:26;99211.53;;;23.44;100.00
8069;BME280;4077;43.702;24.896;2023-06-26T07:48:52;99210.63;;;23.25;100.00
8069;BME280;4077;43.702;24.896;2023-06-26T07:51:18;99212.50;;;23.23;100.00
8069;BME280;4077;43.702;24.896;2023-06-26T07:53:43;99205.31;;;23.45;100.00
8069;BME280;4077;43.702;24.896;2023-06-26T07:56:09;99222.19;;;23.62;100.00
8069;BME280;4077;43.702;24.896;2023-06-26T07:58:34;99223.81;;;23.83;100.00
8069;BME280;4077;43.702;24.896;2023-06-26T08:01:00;99226.63;;;23.60;100.00
8069;BME280;4077;43.702;24.896;2023-06-26T08:03:25;99225.34;;;23.50;100.00
8069;BME280;4077;43.702;24.896;2023-06-26T08:05:51;99233.88;;;23.75;100.00
8069;BME280;4077;43.702;24.896;2023-06-26T08:08:17;99223.63;;;23.69;100.00
8069;BME280;4077;43.702;24.896;2023-06-26T08:10:42;99231.56;;;23.67;100.00
8069;BME280;4077;43.702;24.896;2023-06-26T08:13:07;99227.22;;;23.66;100.00
8069;BME280;4077;43.702;24.896;2023-06-26T08:15:33;99229.75;;;23.69;100.00
8069;BME280;4077;43.702;24.896;2023-06-26T08:17:58;99227.38;;;23.63;100.00
8069;BME280;4077;43.702;24.896;2023-06-26T08:20:24;99225.78;;;23.59;100.00
8069;BME280;4077;43.702;24.896;2023-06-26T08:22:49;99220.97;;;23.69;100.00
8069;BME280;4077;43.702;24.896;2023-06-26T08:25:17;99227.03;;;23.71;100.00
8069;BME280;4077;43.702;24.896;2023-06-26T08:27:42;99224.00;;;23.60;100.00
8069;BME280;4077;43.702;24.896;2023-06-26T08:30:08;99222.97;;;23.64;100.00
8069;BME280;4077;43.702;24.896;2023-06-26T08:32:33;99223.47;;;23.72;100.00
8069;BME280;4077;43.702;24.896;2023-06-26T08:34:59;99210.56;;;23.66;100.00
8069;BME280;4077;43.702;24.896;2023-06-26T08:37:24;99208.91;;;24.01;100.00
8069;BME280;4077;43.702;24.896;2023-06-26T08:39:50;99222.59;;;24.09;100.00
8069;BME280;4077;43.702;24.896;2023-06-26T08:42:16;99222.03;;;24.02;100.00
8069;BME280;4077;43.702;24.896;2023-06-26T08:44:41;99223.56;;;24.07;100.00
8069;BME280;4077;43.702;24.896;2023-06-26T08:47:07;99212.75;;;23.94;100.00
8069;BME280;4077;43.702;24.896;2023-06-26T08:49:44;99216.88;;;23.99;100.00
8069;BME280;4077;43.702;24.896;2023-06-26T08:52:23;99222.72;;;23.87;100.00
8069;BME280;4077;43.702;24.896;2023-06-26T08:54:54;99231.22;;;23.94;100.00
8069;BME280;4077;43.702;24.896;2023-06-26T08:57:23;99221.03;;;23.86;100.00
8069;BME280;4077;43.702;24.896;2023-06-26T08:59:48;99218.34;;;23.69;100.00
8069;BME280;4077;43.702;24.896;2023-06-26T09:02:15;99212.69;;;23.58;100.00
8069;BME280;4077;43.702;24.896;2023-06-26T09:04:40;99212.88;;;23.53;100.00
8069;BME280;4077;43.702;24.896;2023-06-26T09:07:06;99218.31;;;23.50;100.00
8069;BME280;4077;43.702;24.896;2023-06-26T09:09:32;99221.69;;;23.33;100.00
8069;BME280;4077;43.702;24.896;2023-06-26T09:11:57;99208.16;;;23.22;100.00
8069;BME280;4077;43.702;24.896;2023-06-26T09:14:23;99216.72;;;23.27;100.00
8069;BME280;4077;43.702;24.896;2023-06-26T09:17:07;99215.41;;;23.17;100.00
8069;BME280;4077;43.702;24.896;2023-06-26T09:19:59;99212.84;;;23.15;100.00
8069;BME280;4077;43.702;24.896;2023-06-26T09:22:56;99206.41;;;23.02;100.00
8069;BME280;4077;43.702;24.896;2023-06-26T09:25:49;99203.75;;;22.82;100.00
8069;BME280;4077;43.702;24.896;2023-06-26T09:28:43;99184.13;;;22.48;100.00
8069;BME280;4077;43.702;24.896;2023-06-26T09:31:35;99176.72;;;22.37;100.00
8069;BME280;4077;43.702;24.896;2023-06-26T09:34:10;99182.72;;;22.19;100.00
8069;BME280;4077;43.702;24.896;2023-06-26T09:36:36;99179.56;;;22.11;100.00
8069;BME280;4077;43.702;24.896;2023-06-26T09:39:06;99166.94;;;21.97;100.00
8069;BME280;4077;43.702;24.896;2023-06-26T09:41:43;99168.22;;;22.09;100.00
8069;BME280;4077;43.702;24.896;2023-06-26T09:44:11;99167.41;;;22.07;100.00
8069;BME280;4077;43.702;24.896;2023-06-26T09:46:38;99149.84;;;22.07;100.00
8069;BME280;4077;43.702;24.896;2023-06-26T09:49:10;99160.63;;;22.23;100.00
8069;BME280;4077;43.702;24.896;2023-06-26T09:51:37;99156.44;;;22.39;100.00
8069;BME280;4077;43.702;24.896;2023-06-26T09:54:04;99160.28;;;22.53;100.00
8069;BME280;4077;43.702;24.896;2023-06-26T09:56:30;99179.91;;;22.86;100.00
8069;BME280;4077;43.702;24.896;2023-06-26T09:58:57;99180.34;;;22.96;100.00
8069;BME280;4077;43.702;24.896;2023-06-26T10:01:26;99185.28;;;23.04;100.00
8069;BME280;4077;43.702;24.896;2023-06-26T10:03:52;99180.69;;;22.88;100.00
8069;BME280;4077;43.702;24.896;2023-06-26T10:06:26;99190.00;;;23.16;100.00
8069;BME280;4077;43.702;24.896;2023-06-26T10:08:53;99192.09;;;23.28;100.00
8069;BME280;4077;43.702;24.896;2023-06-26T10:11:21;99190.38;;;23.46;100.00
8069;BME280;4077;43.702;24.896;2023-06-26T10:13:50;99183.31;;;23.46;100.00
8069;BME280;4077;43.702;24.896;2023-06-26T10:16:24;99179.91;;;23.44;100.00
8069;BME280;4077;43.702;24.896;2023-06-26T10:18:59;99184.22;;;23.47;100.00
8069;BME280;4077;43.702;24.896;2023-06-26T10:21:27;99178.28;;;23.42;100.00
8069;BME280;4077;43.702;24.896;2023-06-26T10:23:56;99179.75;;;23.68;100.00
8069;BME280;4077;43.702;24.896;2023-06-26T10:26:22;99179.00;;;23.83;100.00
8069;BME280;4077;43.702;24.896;2023-06-26T10:28:50;99184.25;;;24.02;100.00
8069;BME280;4077;43.702;24.896;2023-06-26T10:31:21;99171.25;;;24.16;100.00
8069;BME280;4077;43.702;24.896;2023-06-26T10:33:49;99183.03;;;24.26;100.00
8069;BME280;4077;43.702;24.896;2023-06-26T10:36:20;99181.34;;;24.25;100.00
8069;BME280;4077;43.702;24.896;2023-06-26T10:38:54;99170.44;;;24.33;100.00
8069;BME280;4077;43.702;24.896;2023-06-26T10:41:21;99182.41;;;24.58;100.00
8069;BME280;4077;43.702;24.896;2023-06-26T10:44:10;99177.41;;;24.86;100.00
8069;BME280;4077;43.702;24.896;2023-06-26T10:47:05;99185.72;;;25.29;100.00
8069;BME280;4077;43.702;24.896;2023-06-26T10:49:31;99189.84;;;25.50;100.00
8069;BME280;4077;43.702;24.896;2023-06-26T10:52:00;99182.22;;;25.93;100.00
8069;BME280;4077;43.702;24.896;2023-06-26T10:54:29;99184.59;;;25.98;100.00
8069;BME280;4077;43.702;24.896;2023-06-26T10:56:55;99186.25;;;26.30;100.00
8069;BME280;4077;43.702;24.896;2023-06-26T10:59:26;99181.31;;;26.40;100.00
8069;BME280;4077;43.702;24.896;2023-06-26T11:04:44;99193.22;;;26.01;100.00
8069;BME280;4077;43.702;24.896;2023-06-26T11:07:24;99195.81;;;26.33;100.00
8069;BME280;4077;43.702;24.896;2023-06-26T11:12:44;99186.25;;;26.46;100.00
8069;BME280;4077;43.702;24.896;2023-06-26T11:15:10;99185.19;;;26.49;100.00
8069;BME280;4077;43.702;24.896;2023-06-26T11:17:37;99187.28;;;26.43;100.00
8069;BME280;4077;43.702;24.896;2023-06-26T11:20:05;99184.19;;;26.51;100.00
8069;BME280;4077;43.702;24.896;2023-06-26T11:22:35;99187.00;;;26.78;100.00
8069;BME280;4077;43.702;24.896;2023-06-26T11:25:02;99184.75;;;27.00;100.00
8069;BME280;4077;43.702;24.896;2023-06-26T11:30:43;99189.91;;;27.18;100.00
8069;BME280;4077;43.702;24.896;2023-06-26T11:33:09;99190.56;;;27.21;100.00
8069;BME280;4077;43.702;24.896;2023-06-26T11:35:35;99189.03;;;27.46;100.00
8069;BME280;4077;43.702;24.896;2023-06-26T11:38:03;99193.47;;;27.60;100.00
8069;BME280;4077;43.702;24.896;2023-06-26T11:40:36;99180.84;;;27.63;100.00
8069;BME280;4077;43.702;24.896;2023-06-26T11:43:03;99181.34;;;27.56;100.00
8069;BME280;4077;43.702;24.896;2023-06-26T11:49:15;99179.72;;;27.67;100.00
8069;BME280;4077;43.702;24.896;2023-06-26T11:51:57;99178.59;;;27.71;100.00
8069;BME280;4077;43.702;24.896;2023-06-26T11:54:26;99186.53;;;27.57;100.00
8069;BME280;4077;43.702;24.896;2023-06-26T11:56:54;99180.69;;;27.38;100.00
8069;BME280;4077;43.702;24.896;2023-06-26T11:59:21;99181.84;;;27.19;100.00
8069;BME280;4077;43.702;24.896;2023-06-26T12:01:46;99175.59;;;27.06;100.00
8069;BME280;4077;43.702;24.896;2023-06-26T12:04:14;99172.81;;;26.79;100.00
8069;BME280;4077;43.702;24.896;2023-06-26T12:06:44;99151.28;;;26.55;100.00
8069;BME280;4077;43.702;24.896;2023-06-26T12:09:12;99161.44;;;26.63;100.00
8069;BME280;4077;43.702;24.896;2023-06-26T12:11:41;99161.88;;;26.69;100.00
8069;BME280;4077;43.702;24.896;2023-06-26T12:14:08;99163.78;;;26.67;100.00
8069;BME280;4077;43.702;24.896;2023-06-26T12:16:35;99160.72;;;26.45;100.00
8069;BME280;4077;43.702;24.896;2023-06-26T12:19:05;99163.66;;;26.55;100.00
8069;BME280;4077;43.702;24.896;2023-06-26T12:21:45;99159.22;;;26.55;100.00
8069;BME280;4077;43.702;24.896;2023-06-26T12:24:16;99161.25;;;26.66;100.00
8069;BME280;4077;43.702;24.896;2023-06-26T12:26:47;99158.09;;;26.59;100.00
8069;BME280;4077;43.702;24.896;2023-06-26T12:29:15;99157.72;;;26.51;100.00
8069;BME280;4077;43.702;24.896;2023-06-26T12:31:43;99153.47;;;26.33;100.00
8069;BME280;4077;43.702;24.896;2023-06-26T12:34:13;99176.16;;;26.37;100.00
8069;BME280;4077;43.702;24.896;2023-06-26T12:36:42;99169.34;;;26.33;100.00
8069;BME280;4077;43.702;24.896;2023-06-26T12:39:11;99163.09;;;26.34;100.00
8069;BME280;4077;43.702;24.896;2023-06-26T12:41:48;99173.13;;;26.29;100.00
8069;BME280;4077;43.702;24.896;2023-06-26T12:44:40;99165.66;;;26.05;100.00
8069;BME280;4077;43.702;24.896;2023-06-26T12:47:05;99153.72;;;25.82;100.00
8069;BME280;4077;43.702;24.896;2023-06-26T12:49:39;99171.47;;;25.80;100.00
8069;BME280;4077;43.702;24.896;2023-06-26T12:52:06;99132.97;;;25.59;100.00
8069;BME280;4077;43.702;24.896;2023-06-26T12:54:33;99174.81;;;25.84;100.00
8069;BME280;4077;43.702;24.896;2023-06-26T12:56:59;99181.69;;;25.71;100.00
8069;BME280;4077;43.702;24.896;2023-06-26T12:59:24;99180.13;;;25.67;100.00
8069;BME280;4077;43.702;24.896;2023-06-26T13:01:50;99175.72;;;25.67;100.00
8069;BME280;4077;43.702;24.896;2023-06-26T13:04:16;99163.09;;;25.72;100.00
8069;BME280;4077;43.702;24.896;2023-06-26T13:06:41;99162.88;;;25.77;100.00
8069;BME280;4077;43.702;24.896;2023-06-26T13:09:08;99162.53;;;25.83;100.00
8069;BME280;4077;43.702;24.896;2023-06-26T13:11:37;99166.34;;;25.93;100.00
8069;BME280;4077;43.702;24.896;2023-06-26T13:14:03;99159.19;;;25.79;100.00
8069;BME280;4077;43.702;24.896;2023-06-26T13:16:29;99150.75;;;25.73;100.00
8069;BME280;4077;43.702;24.896;2023-06-26T13:18:55;99155.66;;;25.63;100.00
8069;BME280;4077;43.702;24.896;2023-06-26T13:21:21;99166.66;;;25.55;100.00
8069;BME280;4077;43.702;24.896;2023-06-26T13:23:47;99168.19;;;25.59;100.00
8069;BME280;4077;43.702;24.896;2023-06-26T13:26:12;99164.09;;;25.38;100.00